Time;durP1;ratioP1;P1;durP2;ratioP2;P2;SDS_P1;SDS_P2;PMS_P1;PMS_P2;Temp;Humidity;BMP_temperature;BMP_pressure;BME280_temperature;BME280_humidity;BME280_pressure;Samples;Min_cycle;Max_cycle;Signal;HPM_P1;HPM_P2
2020/12/15 00:01:20;;;;;;;;;;;7.40;99.90;;;;;;5138486;27;19923;-78
2020/12/15 00:03:47;;;;;;;;;;;7.40;99.90;;;;;;5139326;27;19980;-82
2020/12/15 00:06:15;;;;;;;;;;;7.50;99.90;;;;;;5137758;27;19946;-80
2020/12/15 00:08:44;;;;;;;;;;;7.40;99.90;;;;;;5138714;27;19923;-84
2020/12/15 00:11:18;;;;;;;;;;;7.40;99.90;;;;;;5140367;27;19927;-80
2020/12/15 00:13:46;;;;;;;;;;;7.40;99.90;;;;;;5137220;27;19923;-80
2020/12/15 00:16:23;;;;;;;;;;;7.40;99.90;;;;;;5134683;27;19933;-80
2020/12/15 00:18:50;;;;;;;;;;;7.40;99.90;;;;;;5137135;27;19924;-80
2020/12/15 00:21:23;;;;;;;;;;;7.40;99.90;;;;;;5136977;27;19938;-81
2020/12/15 00:23:54;;;;;;;;;;;7.40;99.90;;;;;;5137174;27;19923;-80
2020/12/15 00:26:23;;;;;;;;;;;7.40;99.90;;;;;;5137205;27;19924;-80
2020/12/15 00:28:51;;;;;;;;;;;7.40;99.90;;;;;;5137102;27;19931;-79
2020/12/15 00:31:18;;;;;;;;;;;7.40;99.90;;;;;;5136468;27;19924;-79
2020/12/15 00:33:45;;;;;;;;;;;7.30;99.90;;;;;;5137100;27;19946;-80
2020/12/15 00:36:17;;;;;;;;;;;7.30;99.90;;;;;;5134212;27;19924;-80
2020/12/15 00:38:44;;;;;;;;;;;7.30;99.90;;;;;;5137540;27;19976;-80
2020/12/15 00:41:12;;;;;;;;;;;7.30;99.90;;;;;;5137183;27;20351;-83
2020/12/15 00:43:41;;;;;;;;;;;7.30;99.90;;;;;;5137107;27;19924;-84
2020/12/15 00:46:14;;;;;;;;;;;7.30;99.90;;;;;;5137012;27;19923;-85
2020/12/15 00:48:40;;;;;;;;;;;7.40;99.90;;;;;;5137313;27;19927;-81
2020/12/15 00:51:10;;;;;;;;;;;7.40;99.90;;;;;;5136944;27;20363;-82
2020/12/15 00:53:38;;;;;;;;;;;7.30;99.90;;;;;;5137150;27;19924;-81
2020/12/15 00:56:04;;;;;;;;;;;7.30;99.90;;;;;;5137204;27;19923;-81
2020/12/15 00:58:31;;;;;;;;;;;7.30;99.90;;;;;;5136839;27;19927;-82
2020/12/15 01:00:58;;;;;;;;;;;7.30;99.90;;;;;;5136896;27;19931;-82
2020/12/15 01:03:24;;;;;;;;;;;7.30;99.90;;;;;;5137158;27;20267;-81
2020/12/15 01:05:51;;;;;;;;;;;7.30;99.90;;;;;;5136941;27;20343;-81
2020/12/15 01:08:17;;;;;;;;;;;7.30;99.90;;;;;;5136423;27;19924;-82
2020/12/15 01:10:43;;;;;;;;;;;7.30;99.90;;;;;;5136457;27;19924;-81
2020/12/15 01:13:09;;;;;;;;;;;7.30;99.90;;;;;;5137430;27;19952;-82
2020/12/15 01:15:36;;;;;;;;;;;7.40;99.90;;;;;;5137153;27;19923;-82
2020/12/15 01:18:03;;;;;;;;;;;7.20;99.90;;;;;;5136914;27;20244;-82
2020/12/15 01:20:29;;;;;;;;;;;7.30;99.90;;;;;;5137057;27;19934;-83
2020/12/15 01:22:56;;;;;;;;;;;7.20;99.90;;;;;;5138581;27;19923;-81
2020/12/15 01:25:22;;;;;;;;;;;7.20;99.90;;;;;;5139309;27;19923;-82
2020/12/15 01:27:48;;;;;;;;;;;7.20;99.90;;;;;;5140855;27;19937;-81
2020/12/15 01:30:15;;;;;;;;;;;7.20;99.90;;;;;;5140940;27;19924;-81
2020/12/15 01:32:41;;;;;;;;;;;7.20;99.90;;;;;;5139838;27;19938;-81
2020/12/15 01:35:08;;;;;;;;;;;7.10;99.90;;;;;;5141775;27;19923;-79
2020/12/15 01:37:34;;;;;;;;;;;7.10;99.90;;;;;;5140040;27;19924;-79
2020/12/15 01:40:01;;;;;;;;;;;7.10;99.90;;;;;;5136303;27;20349;-78
2020/12/15 01:42:27;;;;;;;;;;;7.00;99.90;;;;;;5136102;27;20014;-79
2020/12/15 01:44:54;;;;;;;;;;;7.10;99.90;;;;;;5136234;27;20347;-79
2020/12/15 01:47:20;;;;;;;;;;;7.00;99.90;;;;;;5136243;27;19967;-78
2020/12/15 01:49:46;;;;;;;;;;;7.00;99.90;;;;;;5136368;27;19966;-78
2020/12/15 01:52:14;;;;;;;;;;;7.00;99.90;;;;;;5136634;27;19923;-78
2020/12/15 01:54:40;;;;;;;;;;;7.00;99.90;;;;;;5136347;27;20357;-79
2020/12/15 01:57:06;;;;;;;;;;;6.70;99.90;;;;;;5136530;27;20252;-79
2020/12/15 01:59:33;;;;;;;;;;;6.90;99.90;;;;;;5136238;27;20372;-79
2020/12/15 02:01:59;;;;;;;;;;;6.90;99.90;;;;;;5136687;27;20326;-78
2020/12/15 02:04:25;;;;;;;;;;;6.80;99.90;;;;;;5136359;27;19924;-78
2020/12/15 02:06:52;;;;;;;;;;;6.80;99.90;;;;;;5136158;27;20347;-79
2020/12/15 02:09:19;;;;;;;;;;;6.80;99.90;;;;;;5136357;27;19923;-79
2020/12/15 02:11:46;;;;;;;;;;;6.80;99.90;;;;;;5136594;27;19924;-79
2020/12/15 02:14:12;;;;;;;;;;;6.80;99.90;;;;;;5136820;27;19928;-79
2020/12/15 02:16:40;;;;;;;;;;;6.70;99.90;;;;;;5136516;27;19924;-79
2020/12/15 02:19:06;;;;;;;;;;;6.80;99.90;;;;;;5136338;27;19935;-78
2020/12/15 02:21:32;;;;;;;;;;;6.80;99.90;;;;;;5140296;27;20382;-79
2020/12/15 02:24:00;;;;;;;;;;;6.70;99.90;;;;;;5140386;27;19923;-79
2020/12/15 02:26:26;;;;;;;;;;;6.70;99.90;;;;;;5140616;27;19923;-78
2020/12/15 02:28:52;;;;;;;;;;;6.70;99.90;;;;;;5140237;27;20355;-79
2020/12/15 02:31:19;;;;;;;;;;;6.70;99.90;;;;;;5140448;27;19923;-79
2020/12/15 02:33:45;;;;;;;;;;;6.70;99.90;;;;;;5140291;27;19923;-79
2020/12/15 02:36:11;;;;;;;;;;;6.70;99.90;;;;;;5140642;27;19927;-79
2020/12/15 02:38:37;;;;;;;;;;;6.70;99.90;;;;;;5140730;27;20367;-78
2020/12/15 02:41:05;;;;;;;;;;;6.70;99.90;;;;;;5141814;27;19923;-79
2020/12/15 02:43:31;;;;;;;;;;;6.70;99.90;;;;;;5142068;27;20379;-79
2020/12/15 02:45:57;;;;;;;;;;;6.70;99.90;;;;;;5141245;27;19930;-79
2020/12/15 02:48:24;;;;;;;;;;;6.70;99.90;;;;;;5140847;27;20336;-79
2020/12/15 02:50:50;;;;;;;;;;;6.70;99.90;;;;;;5141105;27;19924;-79
2020/12/15 02:53:16;;;;;;;;;;;6.70;99.90;;;;;;5141132;27;20368;-79
2020/12/15 02:55:42;;;;;;;;;;;6.70;99.90;;;;;;5141308;27;19931;-79
2020/12/15 02:58:10;;;;;;;;;;;6.60;99.90;;;;;;5140913;27;20355;-79
2020/12/15 03:00:36;;;;;;;;;;;6.60;99.90;;;;;;5141235;27;19938;-79
2020/12/15 03:03:02;;;;;;;;;;;6.60;99.90;;;;;;5140608;27;19924;-79
2020/12/15 03:05:28;;;;;;;;;;;6.60;99.90;;;;;;5140644;27;19929;-79
2020/12/15 03:07:56;;;;;;;;;;;6.60;99.90;;;;;;5140489;27;20340;-79
2020/12/15 03:10:22;;;;;;;;;;;6.60;99.90;;;;;;5140474;27;20327;-79
2020/12/15 03:12:48;;;;;;;;;;;6.60;99.90;;;;;;5140450;27;19934;-79
2020/12/15 03:15:17;;;;;;;;;;;6.60;99.90;;;;;;5139742;27;20348;-79
2020/12/15 03:17:43;;;;;;;;;;;6.60;99.90;;;;;;5139282;27;19957;-79
2020/12/15 03:20:09;;;;;;;;;;;6.60;99.90;;;;;;5139590;27;19977;-79
2020/12/15 03:22:36;;;;;;;;;;;6.60;99.90;;;;;;5139741;27;19923;-79
2020/12/15 03:25:04;;;;;;;;;;;6.60;99.90;;;;;;5139474;27;19934;-79
2020/12/15 03:27:30;;;;;;;;;;;6.50;99.90;;;;;;5139535;27;20362;-79
2020/12/15 03:29:56;;;;;;;;;;;6.50;99.90;;;;;;5138948;27;19980;-79
2020/12/15 03:32:23;;;;;;;;;;;6.50;99.90;;;;;;5138455;27;19938;-79
2020/12/15 03:34:50;;;;;;;;;;;6.60;99.90;;;;;;5139138;27;20343;-79
2020/12/15 03:37:16;;;;;;;;;;;6.50;99.90;;;;;;5138956;27;19928;-78
2020/12/15 03:39:42;;;;;;;;;;;6.50;99.90;;;;;;5138737;27;19930;-78
2020/12/15 03:42:09;;;;;;;;;;;6.50;99.90;;;;;;5138960;27;19924;-79
2020/12/15 03:44:35;;;;;;;;;;;6.50;99.90;;;;;;5139008;27;20359;-79
2020/12/15 03:47:02;;;;;;;;;;;6.50;99.90;;;;;;5139100;27;20339;-79
2020/12/15 03:49:29;;;;;;;;;;;6.50;99.90;;;;;;5118496;28;19923;-79
2020/12/15 03:51:55;;;;;;;;;;;6.50;99.90;;;;;;5119256;28;19946;-79
2020/12/15 03:54:22;;;;;;;;;;;6.50;99.90;;;;;;5119383;28;19928;-79
2020/12/15 03:56:48;;;;;;;;;;;6.50;99.90;;;;;;5119644;28;19950;-79
2020/12/15 03:59:14;;;;;;;;;;;6.50;99.90;;;;;;5119264;27;19935;-79
2020/12/15 04:01:40;;;;;;;;;;;6.40;99.90;;;;;;5140482;27;19923;-79
2020/12/15 04:04:07;;;;;;;;;;;6.40;99.90;;;;;;5138996;27;19923;-79
2020/12/15 04:06:34;;;;;;;;;;;6.40;99.90;;;;;;5138135;27;20006;-78
2020/12/15 04:09:00;;;;;;;;;;;6.40;99.90;;;;;;5138381;27;19923;-78
2020/12/15 04:11:27;;;;;;;;;;;6.40;99.90;;;;;;5138702;27;20221;-78
2020/12/15 04:13:53;;;;;;;;;;;6.40;99.90;;;;;;5138636;27;19934;-78
2020/12/15 04:16:19;;;;;;;;;;;6.40;99.90;;;;;;5138386;27;19923;-78
2020/12/15 04:18:45;;;;;;;;;;;6.30;99.90;;;;;;5138191;27;19923;-79
2020/12/15 04:21:12;;;;;;;;;;;6.40;99.90;;;;;;5138163;27;19927;-79
2020/12/15 04:23:39;;;;;;;;;;;6.30;99.90;;;;;;5137972;27;20345;-78
2020/12/15 04:26:05;;;;;;;;;;;6.30;99.90;;;;;;5138005;27;19925;-79
2020/12/15 04:28:34;;;;;;;;;;;6.30;99.90;;;;;;5138033;27;20251;-78
2020/12/15 04:31:00;;;;;;;;;;;6.30;99.90;;;;;;5137857;27;19981;-78
2020/12/15 04:33:26;;;;;;;;;;;6.30;99.90;;;;;;5138342;27;19924;-78
2020/12/15 04:35:53;;;;;;;;;;;6.20;99.90;;;;;;5137834;27;20355;-78
2020/12/15 04:38:19;;;;;;;;;;;6.20;99.90;;;;;;5137849;27;19996;-78
2020/12/15 04:40:46;;;;;;;;;;;6.20;99.90;;;;;;5137541;27;19924;-78
2020/12/15 04:43:14;;;;;;;;;;;6.20;99.90;;;;;;5136591;27;19923;-78
2020/12/15 04:45:40;;;;;;;;;;;6.20;99.90;;;;;;5137642;27;20022;-79
2020/12/15 04:48:07;;;;;;;;;;;6.20;99.90;;;;;;5137744;27;19934;-79
2020/12/15 04:50:34;;;;;;;;;;;6.20;99.90;;;;;;5137866;27;19927;-79
2020/12/15 04:53:04;;;;;;;;;;;6.30;99.90;;;;;;5138018;27;19923;-79
2020/12/15 04:55:30;;;;;;;;;;;6.30;99.90;;;;;;5137790;27;19924;-79
2020/12/15 04:57:57;;;;;;;;;;;6.30;99.90;;;;;;5137614;27;20355;-79
2020/12/15 05:00:24;;;;;;;;;;;6.40;99.90;;;;;;5138291;27;19931;-79
2020/12/15 05:02:52;;;;;;;;;;;6.40;99.90;;;;;;5137979;27;19924;-79
2020/12/15 05:05:18;;;;;;;;;;;6.40;99.90;;;;;;5137948;27;19974;-79
2020/12/15 05:07:45;;;;;;;;;;;6.40;99.90;;;;;;5137766;27;19923;-79
2020/12/15 05:10:12;;;;;;;;;;;6.40;99.90;;;;;;5138375;27;19927;-79
2020/12/15 05:12:38;;;;;;;;;;;6.40;99.90;;;;;;5138090;27;19923;-79
2020/12/15 05:15:09;;;;;;;;;;;6.40;99.90;;;;;;5137984;27;20401;-79
2020/12/15 05:17:35;;;;;;;;;;;6.50;99.90;;;;;;5137937;27;19949;-79
2020/12/15 05:20:01;;;;;;;;;;;6.50;99.90;;;;;;5138363;27;19930;-79
2020/12/15 05:22:37;;;;;;;;;;;6.50;99.90;;;;;;5141070;27;19923;-78
2020/12/15 05:25:04;;;;;;;;;;;6.50;99.90;;;;;;5137925;27;19934;-79
2020/12/15 05:27:30;;;;;;;;;;;6.50;99.90;;;;;;5137701;27;20327;-79
2020/12/15 05:30:06;;;;;;;;;;;6.50;99.90;;;;;;5138309;27;19927;-79
2020/12/15 05:32:34;;;;;;;;;;;6.50;99.90;;;;;;5138514;27;19923;-79
2020/12/15 05:35:09;;;;;;;;;;;6.50;99.90;;;;;;5138377;27;19923;-79
2020/12/15 05:37:35;;;;;;;;;;;6.50;99.90;;;;;;5138560;27;19930;-80
2020/12/15 05:40:01;;;;;;;;;;;6.50;99.90;;;;;;5139140;27;19927;-79
2020/12/15 05:42:28;;;;;;;;;;;6.50;99.90;;;;;;5140242;27;19931;-80
2020/12/15 05:44:55;;;;;;;;;;;6.50;99.90;;;;;;5140715;27;20264;-80
2020/12/15 05:47:22;;;;;;;;;;;6.50;99.90;;;;;;5140400;27;19927;-80
2020/12/15 05:49:49;;;;;;;;;;;6.60;99.90;;;;;;5140009;27;20035;-80
2020/12/15 05:52:15;;;;;;;;;;;6.60;99.90;;;;;;5140138;27;19923;-80
2020/12/15 05:54:42;;;;;;;;;;;6.60;99.90;;;;;;5140446;27;19924;-80
2020/12/15 05:57:08;;;;;;;;;;;6.60;99.90;;;;;;5140424;27;20382;-79
2020/12/15 05:59:34;;;;;;;;;;;6.60;99.90;;;;;;5139864;27;19923;-80
2020/12/15 06:02:05;;;;;;;;;;;6.60;99.90;;;;;;5140046;27;19928;-80
2020/12/15 06:04:31;;;;;;;;;;;6.60;99.90;;;;;;5139649;27;19938;-79
2020/12/15 06:06:58;;;;;;;;;;;6.60;99.90;;;;;;5136527;27;20378;-79
2020/12/15 06:09:25;;;;;;;;;;;6.60;99.90;;;;;;5137019;27;19924;-79
2020/12/15 06:11:51;;;;;;;;;;;6.60;99.90;;;;;;5136507;27;19930;-79
2020/12/15 06:14:17;;;;;;;;;;;6.60;99.90;;;;;;5136520;27;19924;-79
2020/12/15 06:16:43;;;;;;;;;;;6.50;99.90;;;;;;5136412;27;19923;-79
2020/12/15 06:19:10;;;;;;;;;;;6.60;99.90;;;;;;5136636;27;19988;-78
2020/12/15 06:21:37;;;;;;;;;;;6.60;99.90;;;;;;5138137;27;19924;-79
2020/12/15 06:24:04;;;;;;;;;;;6.60;99.90;;;;;;5136447;27;20236;-79
2020/12/15 06:26:31;;;;;;;;;;;6.60;99.90;;;;;;5136322;27;19923;-79
2020/12/15 06:29:01;;;;;;;;;;;6.50;99.90;;;;;;5136649;27;19924;-79
2020/12/15 06:31:27;;;;;;;;;;;6.50;99.90;;;;;;5136499;27;19924;-79
2020/12/15 06:33:54;;;;;;;;;;;6.60;99.90;;;;;;5136945;27;19984;-79
2020/12/15 06:36:23;;;;;;;;;;;6.50;99.90;;;;;;5136520;27;19923;-79
2020/12/15 06:38:50;;;;;;;;;;;6.50;99.90;;;;;;5136590;27;19935;-79
2020/12/15 06:41:20;;;;;;;;;;;6.50;99.90;;;;;;5136727;27;19992;-79
2020/12/15 06:43:47;;;;;;;;;;;6.50;99.90;;;;;;5136598;27;20366;-79
2020/12/15 06:46:13;;;;;;;;;;;6.50;99.90;;;;;;5136395;27;19924;-79
2020/12/15 06:48:40;;;;;;;;;;;6.50;99.90;;;;;;5136598;27;19923;-79
2020/12/15 06:51:06;;;;;;;;;;;6.50;99.90;;;;;;5136431;27;19930;-79
2020/12/15 06:53:32;;;;;;;;;;;6.50;99.90;;;;;;5136165;27;19947;-79
2020/12/15 06:55:59;;;;;;;;;;;6.50;99.90;;;;;;5136566;27;19924;-79
2020/12/15 06:58:26;;;;;;;;;;;6.50;99.90;;;;;;5137276;27;19988;-79
2020/12/15 07:00:52;;;;;;;;;;;6.50;99.90;;;;;;5137398;27;19923;-79
2020/12/15 07:03:28;;;;;;;;;;;6.50;99.90;;;;;;5138129;27;19935;-79
2020/12/15 07:05:54;;;;;;;;;;;6.50;99.90;;;;;;5137409;27;19923;-79
2020/12/15 07:08:20;;;;;;;;;;;6.50;99.90;;;;;;5140405;27;20000;-79
2020/12/15 07:10:47;;;;;;;;;;;6.50;99.90;;;;;;5141325;27;19924;-79
2020/12/15 07:13:13;;;;;;;;;;;6.50;99.90;;;;;;5140855;27;20378;-79
2020/12/15 07:15:40;;;;;;;;;;;6.50;99.90;;;;;;5140436;27;19923;-79
2020/12/15 07:18:06;;;;;;;;;;;6.50;99.90;;;;;;5140589;27;19923;-80
2020/12/15 07:20:33;;;;;;;;;;;6.50;99.90;;;;;;5140789;27;19923;-79
2020/12/15 07:22:59;;;;;;;;;;;6.50;99.90;;;;;;5140318;27;19923;-79
2020/12/15 07:25:25;;;;;;;;;;;6.50;99.90;;;;;;5140033;27;20340;-79
2020/12/15 07:27:52;;;;;;;;;;;6.50;99.90;;;;;;5139695;27;19938;-79
2020/12/15 07:30:18;;;;;;;;;;;6.50;99.90;;;;;;5138796;27;20112;-78
2020/12/15 07:32:45;;;;;;;;;;;6.50;99.90;;;;;;5138617;27;19934;-78
2020/12/15 07:35:13;;;;;;;;;;;6.50;99.90;;;;;;5138702;27;19927;-78
2020/12/15 07:37:40;;;;;;;;;;;6.50;99.90;;;;;;5138536;27;19984;-78
2020/12/15 07:40:06;;;;;;;;;;;6.50;99.90;;;;;;5138492;27;19997;-78
2020/12/15 07:42:33;;;;;;;;;;;6.50;99.90;;;;;;5138734;27;19953;-78
2020/12/15 07:44:59;;;;;;;;;;;6.50;99.90;;;;;;5138419;27;20347;-78
2020/12/15 07:47:26;;;;;;;;;;;6.50;99.90;;;;;;5138097;27;19927;-78
2020/12/15 07:49:54;;;;;;;;;;;6.50;99.90;;;;;;5138514;27;19935;-78
2020/12/15 07:52:30;;;;;;;;;;;6.50;99.90;;;;;;5138241;27;19923;-78
2020/12/15 07:55:00;;;;;;;;;;;6.40;99.90;;;;;;5138166;27;19934;-78
2020/12/15 07:57:27;;;;;;;;;;;6.50;99.90;;;;;;5138342;27;19923;-78
2020/12/15 07:59:54;;;;;;;;;;;6.50;99.90;;;;;;5138347;27;19924;-79
2020/12/15 08:02:20;;;;;;;;;;;6.50;99.90;;;;;;5138765;27;20032;-78
2020/12/15 08:04:46;;;;;;;;;;;6.50;99.90;;;;;;5138303;27;19935;-78
2020/12/15 08:07:13;;;;;;;;;;;6.40;99.90;;;;;;5138786;27;19950;-79
2020/12/15 08:09:40;;;;;;;;;;;6.50;99.90;;;;;;5139166;27;19923;-79
2020/12/15 08:12:06;;;;;;;;;;;6.50;99.90;;;;;;5138851;27;19924;-79
2020/12/15 08:14:32;;;;;;;;;;;6.50;99.90;;;;;;5138682;27;19976;-79
2020/12/15 08:17:10;;;;;;;;;;;6.50;99.90;;;;;;5138509;27;19923;-79
2020/12/15 08:19:36;;;;;;;;;;;6.40;99.90;;;;;;5138878;27;19928;-79
2020/12/15 08:22:03;;;;;;;;;;;6.40;99.90;;;;;;5138592;27;19924;-79
2020/12/15 08:24:30;;;;;;;;;;;6.40;99.90;;;;;;5138353;27;19924;-79
2020/12/15 08:26:56;;;;;;;;;;;6.40;99.90;;;;;;5138515;27;19935;-79
2020/12/15 08:29:27;;;;;;;;;;;6.40;99.90;;;;;;5138349;27;19923;-79
2020/12/15 08:31:53;;;;;;;;;;;6.40;99.90;;;;;;5138360;27;19986;-79
2020/12/15 08:34:20;;;;;;;;;;;6.50;99.90;;;;;;5138712;27;19923;-79
2020/12/15 08:36:48;;;;;;;;;;;6.50;99.90;;;;;;5139033;27;19935;-79
2020/12/15 08:39:14;;;;;;;;;;;6.50;99.90;;;;;;5138809;27;19923;-79
2020/12/15 08:41:51;;;;;;;;;;;6.50;99.90;;;;;;5139058;27;19923;-79
2020/12/15 08:44:17;;;;;;;;;;;6.50;99.90;;;;;;5138125;27;20351;-78
2020/12/15 08:46:44;;;;;;;;;;;6.50;99.90;;;;;;5137999;27;19924;-79
2020/12/15 08:49:11;;;;;;;;;;;6.50;99.90;;;;;;5137757;27;19924;-79
2020/12/15 08:51:40;;;;;;;;;;;6.50;99.90;;;;;;5137549;27;19923;-79
2020/12/15 08:54:07;;;;;;;;;;;6.50;99.90;;;;;;5137530;27;20271;-79
2020/12/15 08:56:33;;;;;;;;;;;6.50;99.90;;;;;;5137832;27;19934;-79
2020/12/15 08:59:08;;;;;;;;;;;6.50;99.90;;;;;;5137970;27;19931;-79
2020/12/15 09:01:34;;;;;;;;;;;6.60;99.90;;;;;;5137747;27;19923;-79
2020/12/15 09:04:01;;;;;;;;;;;6.60;99.90;;;;;;5137728;27;19923;-79
2020/12/15 09:06:30;;;;;;;;;;;6.60;99.90;;;;;;5137602;27;20343;-79
2020/12/15 09:08:56;;;;;;;;;;;6.60;99.90;;;;;;5138113;27;19923;-80
2020/12/15 09:11:22;;;;;;;;;;;6.60;99.90;;;;;;5138077;27;19988;-80
2020/12/15 09:13:56;;;;;;;;;;;6.60;99.90;;;;;;5138049;27;19988;-79
2020/12/15 09:16:26;;;;;;;;;;;6.60;99.90;;;;;;5138701;27;19927;-80
2020/12/15 09:18:52;;;;;;;;;;;6.60;99.90;;;;;;5138519;27;19923;-79
2020/12/15 09:21:19;;;;;;;;;;;6.60;99.90;;;;;;5138854;27;19934;-79
2020/12/15 09:23:47;;;;;;;;;;;6.60;99.90;;;;;;5137044;27;19953;-79
2020/12/15 09:26:13;;;;;;;;;;;6.60;99.90;;;;;;5136957;27;20293;-79
2020/12/15 09:28:40;;;;;;;;;;;6.60;99.90;;;;;;5136750;27;19924;-79
2020/12/15 09:31:06;;;;;;;;;;;6.60;99.90;;;;;;5136055;27;19934;-79
2020/12/15 09:33:33;;;;;;;;;;;6.50;99.90;;;;;;5136612;27;19923;-79
2020/12/15 09:35:59;;;;;;;;;;;6.60;99.90;;;;;;5137265;27;20324;-79
2020/12/15 09:38:26;;;;;;;;;;;6.50;99.90;;;;;;5136935;27;19934;-79
2020/12/15 09:40:52;;;;;;;;;;;6.50;99.90;;;;;;5136941;27;19928;-79
2020/12/15 09:43:18;;;;;;;;;;;6.60;99.90;;;;;;5137227;27;19984;-79
2020/12/15 09:45:45;;;;;;;;;;;6.50;99.90;;;;;;5136727;27;19934;-79
2020/12/15 09:48:11;;;;;;;;;;;6.50;99.90;;;;;;5137180;27;19923;-79
2020/12/15 09:50:38;;;;;;;;;;;6.50;99.90;;;;;;5136996;27;19923;-79
2020/12/15 09:53:04;;;;;;;;;;;6.50;99.90;;;;;;5136994;27;19924;-79
2020/12/15 09:55:31;;;;;;;;;;;6.50;99.90;;;;;;5137148;27;19930;-79
2020/12/15 09:57:57;;;;;;;;;;;6.50;99.90;;;;;;5137283;27;19934;-78
2020/12/15 10:00:23;;;;;;;;;;;6.60;99.90;;;;;;5136943;27;19924;-79
2020/12/15 10:02:50;;;;;;;;;;;6.60;99.90;;;;;;5136756;27;19923;-79
2020/12/15 10:05:16;;;;;;;;;;;6.60;99.90;;;;;;5137110;27;19927;-79
2020/12/15 10:07:43;;;;;;;;;;;6.60;99.90;;;;;;5136823;27;19927;-79
2020/12/15 10:10:10;;;;;;;;;;;6.60;99.90;;;;;;5136626;27;19934;-79
2020/12/15 10:12:36;;;;;;;;;;;6.70;99.90;;;;;;5136670;27;19923;-79
2020/12/15 10:15:02;;;;;;;;;;;6.60;99.90;;;;;;5136820;27;19932;-79
2020/12/15 10:17:29;;;;;;;;;;;6.70;99.90;;;;;;5136357;27;19923;-79
2020/12/15 10:19:55;;;;;;;;;;;6.70;99.90;;;;;;5136708;27;19924;-79
2020/12/15 10:22:21;;;;;;;;;;;6.80;99.90;;;;;;5136241;27;19976;-79
2020/12/15 10:24:48;;;;;;;;;;;6.80;99.90;;;;;;5136381;27;20248;-79
2020/12/15 10:27:15;;;;;;;;;;;6.70;99.90;;;;;;5137558;27;19924;-79
2020/12/15 10:29:41;;;;;;;;;;;6.70;99.90;;;;;;5136947;27;19924;-79
2020/12/15 10:32:07;;;;;;;;;;;6.70;99.90;;;;;;5136409;27;19947;-79
2020/12/15 10:34:33;;;;;;;;;;;6.80;99.90;;;;;;5136469;27;19927;-79
2020/12/15 10:37:00;;;;;;;;;;;6.80;99.90;;;;;;5136622;27;19972;-79
2020/12/15 10:39:27;;;;;;;;;;;6.80;99.90;;;;;;5138786;27;20336;-80
2020/12/15 10:42:10;;;;;;;;;;;6.80;99.90;;;;;;5141125;27;19931;-78
2020/12/15 10:44:38;;;;;;;;;;;6.80;99.90;;;;;;5139693;27;20317;-78
2020/12/15 10:47:06;;;;;;;;;;;6.80;99.90;;;;;;5139563;27;20285;-78
2020/12/15 10:49:33;;;;;;;;;;;6.90;99.90;;;;;;5137356;27;19927;-78
2020/12/15 10:52:01;;;;;;;;;;;6.90;99.90;;;;;;5139741;27;19924;-80
2020/12/15 10:54:28;;;;;;;;;;;6.90;99.90;;;;;;5139995;27;20259;-79
2020/12/15 10:56:56;;;;;;;;;;;6.90;99.90;;;;;;5139670;27;19923;-79
2020/12/15 10:59:23;;;;;;;;;;;6.90;99.90;;;;;;5139486;27;20358;-79
2020/12/15 11:01:51;;;;;;;;;;;6.90;99.90;;;;;;5139691;27;19924;-79
2020/12/15 11:04:18;;;;;;;;;;;6.90;99.90;;;;;;5139599;27;19935;-79
2020/12/15 11:06:47;;;;;;;;;;;6.90;99.90;;;;;;5139529;27;19923;-79
2020/12/15 11:09:13;;;;;;;;;;;6.90;99.90;;;;;;5139325;27;19924;-79
2020/12/15 11:11:40;;;;;;;;;;;7.10;99.90;;;;;;5139508;27;19950;-79
2020/12/15 11:14:07;;;;;;;;;;;6.90;99.90;;;;;;5139320;27;19923;-79
2020/12/15 11:16:33;;;;;;;;;;;6.90;99.90;;;;;;5138959;27;20271;-79
2020/12/15 11:19:00;;;;;;;;;;;6.90;99.90;;;;;;5138937;27;19923;-79
2020/12/15 11:21:26;;;;;;;;;;;7.00;99.90;;;;;;5138823;27;20236;-79
2020/12/15 11:23:52;;;;;;;;;;;6.90;99.90;;;;;;5138420;27;19923;-79
2020/12/15 11:26:18;;;;;;;;;;;7.00;99.90;;;;;;5138872;27;19934;-79
2020/12/15 11:28:45;;;;;;;;;;;7.00;99.90;;;;;;5138833;27;19934;-79
2020/12/15 11:31:12;;;;;;;;;;;7.00;99.90;;;;;;5138524;27;19935;-79
2020/12/15 11:33:39;;;;;;;;;;;7.00;99.90;;;;;;5138724;27;19924;-79
2020/12/15 11:36:05;;;;;;;;;;;7.00;99.90;;;;;;5138541;27;19935;-79
2020/12/15 11:38:32;;;;;;;;;;;7.00;99.90;;;;;;5138403;27;19927;-79
2020/12/15 11:40:58;;;;;;;;;;;4.40;99.90;;;;;;5138638;27;19923;-79
2020/12/15 11:43:24;;;;;;;;;;;7.10;99.90;;;;;;5138370;27;19934;-79
2020/12/15 11:45:51;;;;;;;;;;;7.10;99.90;;;;;;5138455;27;19924;-79
2020/12/15 11:48:18;;;;;;;;;;;7.10;99.90;;;;;;5138027;27;19931;-79
2020/12/15 11:50:44;;;;;;;;;;;7.10;99.90;;;;;;5138306;27;19929;-79
2020/12/15 11:53:10;;;;;;;;;;;7.10;99.90;;;;;;5137981;27;19991;-79
2020/12/15 11:55:37;;;;;;;;;;;7.10;99.90;;;;;;5138342;27;20019;-79
2020/12/15 11:58:03;;;;;;;;;;;7.10;99.90;;;;;;5138071;27;19930;-80
2020/12/15 12:00:30;;;;;;;;;;;7.10;99.90;;;;;;5137787;27;19923;-79
2020/12/15 12:02:57;;;;;;;;;;;7.20;99.90;;;;;;5138103;27;20351;-79
2020/12/15 12:05:24;;;;;;;;;;;7.20;99.90;;;;;;5138024;27;19935;-79
2020/12/15 12:07:50;;;;;;;;;;;7.20;99.90;;;;;;5137822;27;19934;-79
2020/12/15 12:10:16;;;;;;;;;;;7.20;99.90;;;;;;5137776;27;20275;-80
2020/12/15 12:12:43;;;;;;;;;;;7.20;99.90;;;;;;5137699;27;20363;-79
2020/12/15 12:15:09;;;;;;;;;;;7.20;99.90;;;;;;5137949;27;19923;-79
2020/12/15 12:17:35;;;;;;;;;;;7.20;99.90;;;;;;5137672;27;19976;-80
2020/12/15 12:26:00;;;;;;;;;;;7.30;99.90;;;;;;5517966;22;20345;-79
2020/12/15 13:09:16;;;;;;;;;;;7.50;99.90;;;;;;5043241;28;20457;-91
2020/12/15 13:11:48;;;;;;;;;;;7.50;99.90;;;;;;5037013;28;20297;-92
2020/12/15 13:14:16;;;;;;;;;;;7.50;99.90;;;;;;5036322;28;19936;-92
2020/12/15 13:16:43;;;;;;;;;;;7.50;99.90;;;;;;5036059;28;19924;-92
2020/12/15 13:19:09;;;;;;;;;;;7.50;99.90;;;;;;5036080;28;19924;-92
2020/12/15 13:21:36;;;;;;;;;;;7.60;99.90;;;;;;5035711;28;19936;-91
2020/12/15 13:24:03;;;;;;;;;;;7.60;99.90;;;;;;5035904;28;19929;-92
2020/12/15 13:26:31;;;;;;;;;;;7.50;99.90;;;;;;5035607;28;19952;-91
2020/12/15 13:28:57;;;;;;;;;;;7.50;99.90;;;;;;5036028;28;20409;-92
2020/12/15 13:31:23;;;;;;;;;;;7.50;99.90;;;;;;5035861;28;19937;-91
2020/12/15 13:33:50;;;;;;;;;;;7.50;99.90;;;;;;5035367;28;19948;-92
2020/12/15 13:36:16;;;;;;;;;;;7.50;99.90;;;;;;5035709;28;20384;-92
2020/12/15 13:38:42;;;;;;;;;;;7.50;99.90;;;;;;5035835;28;19932;-92
2020/12/15 13:41:09;;;;;;;;;;;7.50;99.90;;;;;;5035725;28;19936;-90
2020/12/15 13:43:36;;;;;;;;;;;7.50;99.90;;;;;;5035754;28;19925;-92
2020/12/15 13:46:05;;;;;;;;;;;7.60;99.90;;;;;;5035874;28;19947;-94
2020/12/15 13:48:32;;;;;;;;;;;7.60;99.90;;;;;;5035421;28;19926;-92
2020/12/15 13:50:59;;;;;;;;;;;7.60;99.90;;;;;;5035609;28;19925;-92
2020/12/15 13:53:25;;;;;;;;;;;7.60;99.90;;;;;;5035658;28;19936;-93
2020/12/15 13:55:51;;;;;;;;;;;7.60;99.90;;;;;;5035680;28;19925;-93
2020/12/15 13:58:18;;;;;;;;;;;7.60;99.90;;;;;;5035661;28;19932;-92
2020/12/15 14:00:45;;;;;;;;;;;7.50;99.90;;;;;;5023077;28;19925;-92
2020/12/15 14:03:13;;;;;;;;;;;7.60;99.90;;;;;;5015651;28;19933;-94
2020/12/15 14:05:39;;;;;;;;;;;7.50;99.90;;;;;;5015209;28;19960;-94
2020/12/15 14:08:07;;;;;;;;;;;7.50;99.90;;;;;;5015538;28;20254;-93
2020/12/15 14:10:34;;;;;;;;;;;7.60;99.90;;;;;;5015425;28;19937;-88
2020/12/15 14:13:01;;;;;;;;;;;7.50;99.90;;;;;;5015314;28;19933;-90
2020/12/15 14:15:29;;;;;;;;;;;7.60;99.90;;;;;;5015852;28;19929;-89
2020/12/15 14:17:58;;;;;;;;;;;7.60;99.90;;;;;;5019326;28;19932;-89
2020/12/15 14:20:25;;;;;;;;;;;7.60;99.90;;;;;;5019410;28;20338;-89
2020/12/15 14:22:51;;;;;;;;;;;7.60;99.90;;;;;;5019316;28;19932;-89
2020/12/15 14:25:17;;;;;;;;;;;7.70;99.90;;;;;;5019071;28;19929;-89
2020/12/15 14:27:44;;;;;;;;;;;7.70;99.90;;;;;;5018667;28;20257;-90
2020/12/15 14:30:10;;;;;;;;;;;7.70;99.90;;;;;;5026631;28;19925;-90
2020/12/15 14:32:36;;;;;;;;;;;7.70;99.90;;;;;;5038687;28;19925;-90
2020/12/15 14:35:04;;;;;;;;;;;7.70;99.90;;;;;;5038771;28;19948;-90
2020/12/15 14:37:30;;;;;;;;;;;7.70;99.90;;;;;;5038648;28;19932;-90
2020/12/15 14:39:56;;;;;;;;;;;7.70;99.90;;;;;;5038136;28;19925;-90
2020/12/15 14:42:23;;;;;;;;;;;7.80;99.90;;;;;;5038856;28;19936;-90
2020/12/15 14:44:49;;;;;;;;;;;7.70;99.90;;;;;;5038477;28;19957;-91
2020/12/15 14:47:16;;;;;;;;;;;7.70;99.90;;;;;;5038718;28;19925;-90
2020/12/15 14:49:43;;;;;;;;;;;7.70;99.90;;;;;;5038589;28;19925;-91
2020/12/15 14:52:10;;;;;;;;;;;7.70;99.90;;;;;;5038597;28;20265;-90
2020/12/15 14:54:36;;;;;;;;;;;7.70;99.90;;;;;;5038322;28;19925;-90
2020/12/15 14:57:02;;;;;;;;;;;7.70;99.90;;;;;;5038335;28;20338;-90
2020/12/15 14:59:29;;;;;;;;;;;7.80;99.90;;;;;;5038024;28;19925;-89
2020/12/15 15:01:56;;;;;;;;;;;7.80;99.90;;;;;;5038194;28;19936;-90
2020/12/15 15:04:22;;;;;;;;;;;7.80;99.90;;;;;;5038201;28;20392;-89
2020/12/15 15:06:49;;;;;;;;;;;7.80;99.90;;;;;;5037995;28;19925;-90
2020/12/15 15:09:21;;;;;;;;;;;7.80;99.90;;;;;;5037979;28;19975;-90
2020/12/15 15:11:49;;;;;;;;;;;7.80;99.90;;;;;;5038119;28;20365;-90
2020/12/15 15:14:17;;;;;;;;;;;7.80;99.90;;;;;;5038447;28;20009;-90
2020/12/15 15:16:45;;;;;;;;;;;7.80;99.90;;;;;;5037925;28;19975;-90